Time;durP1;ratioP1;P1;durP2;ratioP2;P2;SDS_P1;SDS_P2;PMS_P1;PMS_P2;Temp;Humidity;BMP_temperature;BMP_pressure;BME280_temperature;BME280_humidity;BME280_pressure;Samples;Min_cycle;Max_cycle;Signal;HPM_P1;HPM_P2
2022/03/12 00:00:54;;;;;;;10.88;5.78;;;;;;;2.51;40.17;102080.75;4992204;28;20180;-45
2022/03/12 00:03:20;;;;;;;10.60;6.18;;;;;;;2.54;40.00;102082.59;4991573;28;20680;-44
2022/03/12 00:05:53;;;;;;;12.38;6.22;;;;;;;2.50;40.33;102078.13;4991973;28;20344;-45
2022/03/12 00:08:34;;;;;;;8.40;5.85;;;;;;;2.47;40.38;102077.19;4991919;28;20212;-45
2022/03/12 00:11:00;;;;;;;9.45;6.60;;;;;;;2.44;40.61;102082.44;4991612;28;20177;-44
2022/03/12 00:13:26;;;;;;;8.70;5.35;;;;;;;2.42;40.29;102070.03;4991340;28;20189;-44
2022/03/12 00:15:52;;;;;;;12.93;6.50;;;;;;;2.46;40.31;102066.59;4992012;28;20681;-44
2022/03/12 00:18:19;;;;;;;9.90;5.78;;;;;;;2.42;39.75;102057.72;4991581;28;20200;-44
2022/03/12 00:20:47;;;;;;;9.13;6.18;;;;;;;2.41;39.94;102063.00;4991802;28;20165;-44
2022/03/12 00:23:16;;;;;;;10.98;5.60;;;;;;;2.40;39.97;102056.78;4990782;28;20264;-45
2022/03/12 00:25:42;;;;;;;12.02;6.00;;;;;;;2.36;40.43;102056.72;4991742;28;20169;-44
2022/03/12 00:28:08;;;;;;;8.45;6.20;;;;;;;2.26;40.20;102056.59;4991723;28;20678;-44
2022/03/12 00:30:35;;;;;;;9.88;5.57;;;;;;;2.37;40.08;102055.88;4991319;28;20256;-44
2022/03/12 00:33:01;;;;;;;7.90;6.18;;;;;;;2.37;40.28;102056.75;4990956;28;20680;-45
2022/03/12 00:35:26;;;;;;;7.85;5.38;;;;;;;2.36;40.04;102056.72;4991023;28;20200;-44
2022/03/12 00:37:52;;;;;;;12.10;5.40;;;;;;;2.37;40.16;102050.59;4991583;28;20585;-43
2022/03/12 00:40:20;;;;;;;7.90;5.28;;;;;;;2.31;40.20;102048.72;4991485;28;20166;-43
2022/03/12 00:42:46;;;;;;;8.93;5.85;;;;;;;2.18;40.30;102058.22;4990685;28;20256;-43
2022/03/12 00:45:11;;;;;;;8.57;5.80;;;;;;;2.10;41.07;102061.59;4990619;28;20185;-43
2022/03/12 00:47:37;;;;;;;11.18;6.07;;;;;;;2.28;40.30;102058.38;4991019;28;20415;-43
2022/03/12 00:50:03;;;;;;;11.85;6.10;;;;;;;2.18;40.22;102067.91;4990873;28;20169;-43
2022/03/12 00:52:29;;;;;;;10.07;6.35;;;;;;;2.16;40.50;102069.63;4990710;28;20205;-44
2022/03/12 00:54:56;;;;;;;8.88;5.60;;;;;;;2.24;40.55;102073.31;4991135;28;20172;-44
2022/03/12 00:57:21;;;;;;;8.07;5.30;;;;;;;2.21;40.08;102068.84;4990876;28;20190;-43
2022/03/12 00:59:46;;;;;;;11.35;6.55;;;;;;;2.20;39.84;102077.63;4990694;28;20172;-43
2022/03/12 01:02:15;;;;;;;10.68;6.15;;;;;;;2.17;40.49;102072.31;4990325;28;20252;-43
2022/03/12 01:04:42;;;;;;;10.95;6.10;;;;;;;2.17;39.98;102069.66;4990983;28;20717;-43
2022/03/12 01:07:11;;;;;;;10.27;5.82;;;;;;;2.19;40.02;102067.06;4990364;28;20501;-43
2022/03/12 01:09:38;;;;;;;8.82;5.32;;;;;;;2.15;40.72;102065.22;4991025;28;20220;-41
2022/03/12 01:12:07;;;;;;;10.98;5.68;;;;;;;2.09;40.79;102067.75;4990621;28;20530;-44
2022/03/12 01:14:34;;;;;;;9.43;5.75;;;;;;;2.03;40.59;102068.53;4990680;28;20173;-43
2022/03/12 01:16:59;;;;;;;10.35;5.97;;;;;;;2.06;40.37;102064.19;4990829;28;20553;-43
2022/03/12 01:19:25;;;;;;;9.65;5.90;;;;;;;2.03;40.47;102066.81;4990497;28;20169;-42
2022/03/12 01:21:52;;;;;;;9.60;5.28;;;;;;;2.00;40.43;102061.44;4990490;28;20208;-43
2022/03/12 01:24:18;;;;;;;8.25;6.03;;;;;;;2.05;40.41;102061.53;4990263;28;20242;-43
2022/03/12 01:26:44;;;;;;;9.57;5.22;;;;;;;2.04;40.76;102052.72;4989141;28;20169;-43
2022/03/12 01:29:09;;;;;;;10.85;5.55;;;;;;;1.98;40.26;102044.66;4990617;28;20174;-42
2022/03/12 01:31:36;;;;;;;8.93;5.75;;;;;;;1.96;40.53;102053.44;4989975;28;20173;-42
2022/03/12 01:34:03;;;;;;;9.68;6.20;;;;;;;2.03;40.38;102058.88;4990341;28;20314;-43
2022/03/12 01:36:28;;;;;;;8.23;5.82;;;;;;;1.98;40.17;102051.72;4990224;28;20236;-43
2022/03/12 01:38:55;;;;;;;10.65;5.85;;;;;;;1.90;40.78;102045.41;4989054;28;20256;-42
2022/03/12 01:41:29;;;;;;;9.13;5.47;;;;;;;1.83;40.69;102049.69;4990308;28;20170;-43
2022/03/12 01:43:57;;;;;;;9.77;5.75;;;;;;;1.87;41.26;102051.53;4989919;28;20578;-43
2022/03/12 01:46:29;;;;;;;8.93;6.55;;;;;;;1.90;40.48;102050.69;4990318;28;20208;-44
2022/03/12 01:48:59;;;;;;;7.78;5.63;;;;;;;1.87;40.32;102054.19;4990500;28;20170;-44
2022/03/12 01:51:29;;;;;;;8.23;5.45;;;;;;;1.83;41.11;102050.59;4990234;28;20704;-44
2022/03/12 01:53:55;;;;;;;9.40;5.50;;;;;;;1.86;40.93;102041.84;4989837;28;20713;-44
2022/03/12 01:56:26;;;;;;;8.27;5.43;;;;;;;1.80;40.94;102039.09;4990140;28;20652;-45
2022/03/12 01:58:52;;;;;;;8.73;5.72;;;;;;;1.82;40.57;102045.28;5005607;28;20196;-44
2022/03/12 02:01:18;;;;;;;11.80;5.43;;;;;;;1.80;40.73;102041.72;4988739;28;20208;-44
2022/03/12 02:03:45;;;;;;;9.88;6.07;;;;;;;1.74;40.63;102031.94;4988211;28;20300;-44
2022/03/12 02:06:15;;;;;;;8.13;5.43;;;;;;;1.79;40.98;102032.94;4988653;28;20240;-44
2022/03/12 02:08:41;;;;;;;7.78;5.72;;;;;;;1.69;41.03;102033.63;4989795;28;20173;-44
2022/03/12 02:11:06;;;;;;;10.10;5.60;;;;;;;1.71;41.20;102028.38;4990067;28;20170;-44
2022/03/12 02:13:34;;;;;;;8.23;5.18;;;;;;;1.72;40.97;102028.38;4989334;28;20197;-44
2022/03/12 02:16:08;;;;;;;8.57;5.60;;;;;;;1.63;41.50;102029.09;4990116;28;20204;-45
2022/03/12 02:18:38;;;;;;;12.10;5.68;;;;;;;1.70;40.74;102031.84;4991076;28;20189;-44
2022/03/12 02:21:04;;;;;;;10.68;5.50;;;;;;;1.62;41.71;102027.34;4993808;28;20177;-43
2022/03/12 02:23:44;;;;;;;8.50;5.93;;;;;;;1.53;41.55;102031.53;4993019;28;20209;-44
2022/03/12 02:26:10;;;;;;;9.05;5.60;;;;;;;1.55;41.76;102025.47;4994007;28;20173;-44
2022/03/12 02:28:35;;;;;;;10.18;6.10;;;;;;;1.56;41.48;102035.16;4994035;28;20180;-44
2022/03/12 02:31:01;;;;;;;9.32;5.75;;;;;;;1.52;41.38;102035.94;5000794;28;20193;-44
2022/03/12 02:33:28;;;;;;;9.57;5.55;;;;;;;1.54;41.15;102026.31;5010823;28;20197;-42
2022/03/12 02:35:56;;;;;;;9.30;5.53;;;;;;;1.47;41.36;102031.47;5012999;28;20529;-42
2022/03/12 02:38:23;;;;;;;8.73;5.97;;;;;;;1.43;41.63;102035.78;5013192;28;20175;-44
2022/03/12 02:40:51;;;;;;;10.90;5.65;;;;;;;1.32;41.98;102025.00;5013397;28;20161;-42
2022/03/12 02:43:26;;;;;;;8.73;5.95;;;;;;;1.36;41.85;102018.06;5012716;28;20209;-43
2022/03/12 02:45:57;;;;;;;9.52;5.43;;;;;;;1.39;41.50;102024.25;5012808;28;20274;-43
2022/03/12 02:48:24;;;;;;;8.85;5.97;;;;;;;1.37;42.12;102023.34;5013331;28;20550;-44
2022/03/12 02:50:51;;;;;;;9.18;5.50;;;;;;;1.33;42.11;102024.13;5012614;28;20209;-44
2022/03/12 02:53:17;;;;;;;11.02;5.43;;;;;;;1.29;42.00;102019.69;5012668;28;20193;-44
2022/03/12 02:55:45;;;;;;;9.13;5.97;;;;;;;1.29;42.03;102032.91;5012497;28;20580;-42
2022/03/12 02:58:10;;;;;;;7.75;5.47;;;;;;;1.30;42.26;102017.94;5012823;28;20205;-44
2022/03/12 03:00:37;;;;;;;8.98;5.72;;;;;;;1.29;41.80;102037.25;5012189;28;20251;-43
2022/03/12 03:03:04;;;;;;;11.55;6.10;;;;;;;1.22;42.04;102023.06;5011333;28;20719;-44
2022/03/12 03:05:38;;;;;;;9.73;5.35;;;;;;;1.16;42.84;102023.84;4992815;28;20693;-43
2022/03/12 03:08:05;;;;;;;8.80;5.43;;;;;;;1.13;42.69;102026.41;4993462;28;20161;-44
2022/03/12 03:10:42;;;;;;;9.60;5.95;;;;;;;1.21;42.61;102024.81;4993008;28;20185;-43
2022/03/12 03:13:16;;;;;;;10.63;5.85;;;;;;;1.16;42.55;102029.13;4992919;28;20184;-45
2022/03/12 03:15:53;;;;;;;6.88;4.95;;;;;;;1.13;42.49;102026.41;4993167;28;20177;-44
2022/03/12 03:18:22;;;;;;;10.77;6.20;;;;;;;1.10;42.81;102028.09;4993366;28;20529;-45
2022/03/12 03:20:49;;;;;;;9.20;5.85;;;;;;;1.09;42.81;102019.28;4992849;28;20185;-44
2022/03/12 03:23:15;;;;;;;10.75;5.95;;;;;;;1.05;42.96;102014.81;4992410;28;20209;-43
2022/03/12 03:25:40;;;;;;;10.05;5.85;;;;;;;1.04;42.85;102023.59;4992896;28;20204;-43
2022/03/12 03:28:08;;;;;;;8.18;5.70;;;;;;;1.10;42.40;102029.00;4993161;28;20244;-42
2022/03/12 03:30:35;;;;;;;8.80;6.05;;;;;;;1.07;42.45;102023.63;4992424;28;20196;-43
2022/03/12 03:33:02;;;;;;;7.72;5.80;;;;;;;0.96;43.02;102030.44;4992329;28;20193;-45
2022/03/12 03:35:28;;;;;;;9.48;5.93;;;;;;;1.04;42.92;102034.13;4992043;28;20181;-42
2022/03/12 03:37:53;;;;;;;8.77;6.15;;;;;;;0.96;42.75;102030.44;4992577;28;20181;-44
2022/03/12 03:40:19;;;;;;;9.40;5.28;;;;;;;0.95;43.08;102026.91;4992773;28;20244;-43
2022/03/12 03:42:45;;;;;;;11.98;6.85;;;;;;;0.92;42.91;102031.25;4992084;28;20221;-42
2022/03/12 03:45:10;;;;;;;10.95;5.68;;;;;;;0.86;42.87;102018.81;4992136;28;20181;-43
2022/03/12 03:47:35;;;;;;;9.32;6.72;;;;;;;0.89;43.18;102020.63;5007363;28;20188;-44
2022/03/12 03:50:02;;;;;;;10.15;5.82;;;;;;;0.90;42.94;102015.41;4992367;28;20260;-43
2022/03/12 03:52:27;;;;;;;7.85;6.13;;;;;;;0.86;43.18;102008.28;4991782;28;20567;-43
2022/03/12 03:54:53;;;;;;;10.93;6.18;;;;;;;0.73;43.39;102011.50;4992564;28;20220;-43
2022/03/12 03:57:19;;;;;;;10.38;5.95;;;;;;;0.77;43.35;102016.88;4991909;28;20169;-43
2022/03/12 03:59:44;;;;;;;7.95;5.70;;;;;;;0.70;43.97;102007.06;4992621;28;20708;-45
2022/03/12 04:02:10;;;;;;;10.88;5.90;;;;;;;0.73;43.39;102012.41;4991779;28;20277;-43
2022/03/12 04:04:38;;;;;;;8.32;5.65;;;;;;;0.76;43.42;102006.28;4990754;28;20177;-44
2022/03/12 04:07:05;;;;;;;9.85;6.07;;;;;;;0.66;43.81;102012.25;4991840;28;20178;-42
2022/03/12 04:09:31;;;;;;;7.93;5.50;;;;;;;0.68;43.32;102013.16;4992254;28;20643;-43
2022/03/12 04:11:56;;;;;;;10.20;5.65;;;;;;;0.64;43.76;102012.22;4991902;28;20377;-42
2022/03/12 04:14:22;;;;;;;8.20;5.85;;;;;;;0.67;43.58;102020.19;4991755;28;20166;-42
2022/03/12 04:16:47;;;;;;;9.73;5.85;;;;;;;0.71;43.48;102022.03;4990520;28;20189;-43
2022/03/12 04:19:14;;;;;;;8.55;5.70;;;;;;;0.67;43.45;102000.84;4991677;28;20479;-41
2022/03/12 04:21:40;;;;;;;8.18;5.88;;;;;;;0.70;43.55;102001.78;4991466;28;20275;-44
2022/03/12 04:24:06;;;;;;;7.95;5.38;;;;;;;0.68;42.54;102003.50;4991633;28;20684;-42
2022/03/12 04:26:35;;;;;;;8.45;5.93;;;;;;;0.61;43.16;101997.22;4991550;28;20185;-44
2022/03/12 04:29:04;;;;;;;9.40;5.85;;;;;;;0.69;43.75;101993.84;4991866;28;20190;-43
2022/03/12 04:31:31;;;;;;;8.52;5.80;;;;;;;0.63;43.52;101994.59;5010314;28;20192;-44
2022/03/12 04:33:56;;;;;;;8.63;5.78;;;;;;;0.63;42.94;101998.97;5010230;28;20723;-42
2022/03/12 04:36:22;;;;;;;8.45;5.75;;;;;;;0.65;43.23;101995.50;5011150;28;20177;-43
2022/03/12 04:38:49;;;;;;;8.30;5.50;;;;;;;0.63;43.24;102004.25;5010615;28;20230;-43
2022/03/12 04:41:16;;;;;;;9.32;5.82;;;;;;;0.55;43.37;101999.72;5010793;28;20542;-42
2022/03/12 04:43:42;;;;;;;8.57;5.68;;;;;;;0.58;43.05;101999.75;5008190;28;20223;-43
2022/03/12 04:46:08;;;;;;;10.25;6.35;;;;;;;0.65;42.60;101998.16;5002369;28;20188;-44
2022/03/12 04:48:33;;;;;;;11.25;6.28;;;;;;;0.62;42.04;101998.09;5010529;28;20188;-44
2022/03/12 04:50:59;;;;;;;8.98;5.82;;;;;;;0.55;43.09;102017.28;5011041;28;20247;-43
2022/03/12 04:53:26;;;;;;;9.75;6.05;;;;;;;0.61;42.59;102004.22;5010114;28;20192;-42
2022/03/12 04:55:52;;;;;;;11.98;6.10;;;;;;;0.57;42.89;102013.81;5010924;28;20271;-42
2022/03/12 04:58:19;;;;;;;9.32;5.45;;;;;;;0.48;42.77;102010.06;5025837;28;20177;-41
2022/03/12 05:00:46;;;;;;;9.05;6.13;;;;;;;0.45;42.80;102015.28;5010385;28;20254;-42
2022/03/12 05:03:21;;;;;;;8.30;5.90;;;;;;;0.45;42.91;102024.09;5007890;28;20583;-42
2022/03/12 05:05:49;;;;;;;9.10;5.95;;;;;;;0.51;42.73;102021.59;4991201;28;20192;-43
2022/03/12 05:08:18;;;;;;;9.77;6.30;;;;;;;0.50;43.00;102022.44;4991104;28;20228;-42
2022/03/12 05:10:49;;;;;;;9.20;5.40;;;;;;;0.43;42.42;102017.00;4991046;28;20169;-44
2022/03/12 05:13:22;;;;;;;8.40;5.78;;;;;;;0.37;42.59;102018.66;4990383;28;20201;-43
2022/03/12 05:15:56;;;;;;;9.45;6.18;;;;;;;0.30;43.49;102021.09;4990412;28;20220;-44
2022/03/12 05:18:23;;;;;;;7.88;5.57;;;;;;;0.34;43.49;102028.22;4990968;28;20305;-43
2022/03/12 05:20:50;;;;;;;8.90;5.85;;;;;;;0.30;43.38;102024.63;4990808;28;20771;-44
2022/03/12 05:23:18;;;;;;;10.27;5.65;;;;;;;0.26;43.68;102025.41;4990126;28;20237;-43
2022/03/12 05:25:47;;;;;;;12.20;6.40;;;;;;;0.22;43.30;102028.84;4990761;28;20166;-44
2022/03/12 05:28:22;;;;;;;9.32;5.60;;;;;;;0.21;43.83;102027.03;4990566;28;20191;-42
2022/03/12 05:30:48;;;;;;;10.23;5.95;;;;;;;0.12;44.16;102032.09;4990647;28;20711;-42
2022/03/12 05:33:16;;;;;;;8.52;5.68;;;;;;;0.18;43.98;102029.63;4989643;28;20193;-44
2022/03/12 05:35:46;;;;;;;8.95;5.95;;;;;;;0.17;43.73;102036.63;4990289;28;20223;-43
2022/03/12 05:38:12;;;;;;;12.70;5.88;;;;;;;0.19;43.32;102028.75;4990127;28;20214;-42
2022/03/12 05:40:40;;;;;;;9.63;5.50;;;;;;;0.10;43.94;102036.44;4989933;28;20196;-43
2022/03/12 05:43:09;;;;;;;10.52;5.88;;;;;;;0.10;43.93;102050.50;4989671;28;20209;-43
2022/03/12 05:45:35;;;;;;;10.68;6.50;;;;;;;0.15;43.48;102046.25;4989832;28;20580;-41
2022/03/12 05:48:01;;;;;;;10.35;5.65;;;;;;;0.20;43.30;102056.91;4990481;28;20185;-42
2022/03/12 05:50:27;;;;;;;9.65;5.78;;;;;;;0.15;43.32;102046.25;4989927;28;20543;-41
2022/03/12 05:52:53;;;;;;;8.32;5.68;;;;;;;0.17;43.97;102054.19;4988761;28;20204;-41
2022/03/12 05:55:21;;;;;;;8.40;5.35;;;;;;;0.20;43.30;102060.44;4990213;28;20169;-40
2022/03/12 05:57:47;;;;;;;9.30;5.70;;;;;;;0.22;43.40;102044.66;4990005;28;20272;-41
2022/03/12 06:00:15;;;;;;;10.52;5.78;;;;;;;0.16;43.59;102050.66;4990029;28;20203;-40
2022/03/12 06:02:51;;;;;;;8.15;5.63;;;;;;;0.23;43.71;102046.44;4989833;28;20209;-42
2022/03/12 06:05:24;;;;;;;13.30;5.95;;;;;;;0.15;43.96;102053.25;5007752;28;20168;-43
2022/03/12 06:07:50;;;;;;;10.23;5.75;;;;;;;0.13;44.14;102060.22;5007942;28;20177;-41
2022/03/12 06:10:34;;;;;;;9.07;5.63;;;;;;;0.11;44.50;102054.03;5009710;28;20558;-43
2022/03/12 06:13:05;;;;;;;11.80;5.60;;;;;;;0.16;44.06;102049.78;5009392;28;20295;-42
2022/03/12 06:15:34;;;;;;;9.55;5.80;;;;;;;0.19;44.04;102061.25;5009391;28;20668;-43
2022/03/12 06:18:00;;;;;;;10.13;6.20;;;;;;;0.23;44.19;102070.16;5009598;28;20656;-41
2022/03/12 06:20:25;;;;;;;10.75;5.60;;;;;;;0.30;43.97;102058.88;5009217;28;20169;-42
2022/03/12 06:22:53;;;;;;;10.23;6.28;;;;;;;0.34;43.58;102049.31;5009123;28;20226;-42
2022/03/12 06:25:22;;;;;;;8.38;5.50;;;;;;;0.31;44.23;102058.06;5009613;28;20585;-43
2022/03/12 06:27:53;;;;;;;9.38;5.95;;;;;;;0.33;44.14;102058.97;5024240;28;20180;-43
2022/03/12 06:30:21;;;;;;;9.05;5.88;;;;;;;0.45;44.07;102049.56;5009360;28;20157;-43
2022/03/12 06:32:48;;;;;;;8.98;5.63;;;;;;;0.54;43.05;102061.19;5008411;28;20701;-43
2022/03/12 06:35:15;;;;;;;9.63;6.00;;;;;;;0.66;42.90;102057.97;5010137;28;20198;-44
2022/03/12 06:37:42;;;;;;;8.48;6.05;;;;;;;0.69;43.15;102054.50;5009606;28;20240;-42
2022/03/12 06:40:11;;;;;;;10.43;6.05;;;;;;;0.77;43.32;102058.22;5009480;28;20196;-43
2022/03/12 06:42:39;;;;;;;12.13;6.35;;;;;;;0.78;43.42;102058.22;5009214;28;20209;-40
2022/03/12 06:45:06;;;;;;;9.63;5.35;;;;;;;0.94;42.45;102066.47;5009504;28;20811;-42
2022/03/12 06:47:32;;;;;;;7.90;5.43;;;;;;;1.01;42.83;102057.84;5024562;28;20239;-43
2022/03/12 06:49:59;;;;;;;10.18;5.80;;;;;;;1.03;43.01;102064.94;5008479;28;20173;-42
2022/03/12 06:52:26;;;;;;;10.55;6.05;;;;;;;1.12;42.64;102061.59;5004173;28;20263;-42
2022/03/12 06:54:52;;;;;;;8.95;6.20;;;;;;;1.30;41.74;102062.81;4989703;28;20181;-41
2022/03/12 06:57:19;;;;;;;9.13;5.90;;;;;;;1.56;42.26;102053.63;4990303;28;20528;-43
2022/03/12 06:59:44;;;;;;;9.07;6.40;;;;;;;1.75;41.93;102057.50;5009656;28;20949;-43
2022/03/12 07:02:10;;;;;;;10.82;6.05;;;;;;;1.81;41.15;102062.88;5010615;28;20279;-44
2022/03/12 07:04:36;;;;;;;12.25;6.63;;;;;;;1.90;40.77;102061.25;4964115;28;20181;-43
2022/03/12 07:07:02;;;;;;;15.05;6.22;;;;;;;2.16;40.89;102057.28;4991865;28;20186;-42
2022/03/12 07:09:28;;;;;;;9.77;6.13;;;;;;;2.14;40.28;102060.78;4993415;28;20169;-43
2022/03/12 07:11:56;;;;;;;8.43;6.00;;;;;;;2.37;39.58;102064.69;4992810;28;20185;-44
2022/03/12 07:14:22;;;;;;;8.60;6.25;;;;;;;2.42;39.75;102084.16;4992531;28;20209;-45
2022/03/12 07:16:48;;;;;;;8.15;6.05;;;;;;;2.58;39.48;102073.81;4993121;28;20246;-42
2022/03/12 07:19:14;;;;;;;9.90;6.53;;;;;;;2.62;39.46;102068.59;4993080;28;20169;-42
2022/03/12 07:21:40;;;;;;;11.93;6.53;;;;;;;2.81;39.07;102082.97;4992947;28;20264;-42
2022/03/12 07:24:06;;;;;;;8.88;5.80;;;;;;;2.81;38.51;102082.97;4992402;28;20206;-42
2022/03/12 07:26:31;;;;;;;9.70;6.32;;;;;;;2.96;38.39;102077.00;4993135;28;20169;-44
2022/03/12 07:28:57;;;;;;;8.35;5.95;;;;;;;3.05;38.17;102086.81;4991566;28;20188;-42
2022/03/12 07:31:22;;;;;;;10.57;5.88;;;;;;;3.23;38.44;102088.81;4992626;28;20711;-43
2022/03/12 07:33:49;;;;;;;9.98;6.35;;;;;;;3.35;38.12;102085.44;4992382;28;20555;-45
2022/03/12 07:36:16;;;;;;;11.88;6.45;;;;;;;3.34;37.79;102075.69;4992841;28;20185;-44
2022/03/12 07:38:41;;;;;;;9.85;6.60;;;;;;;3.34;38.00;102067.75;4992209;28;20260;-43
2022/03/12 07:41:07;;;;;;;10.30;6.13;;;;;;;3.62;38.08;102068.94;4992697;28;20173;-44
2022/03/12 07:43:32;;;;;;;8.98;6.60;;;;;;;3.48;37.91;102066.16;4991752;28;20700;-43
2022/03/12 07:45:58;;;;;;;8.63;6.03;;;;;;;3.48;37.61;102071.44;4992303;28;20401;-44
2022/03/12 07:48:24;;;;;;;8.88;6.22;;;;;;;3.50;37.57;102065.28;4992112;28;20601;-44
2022/03/12 07:50:50;;;;;;;8.80;6.38;;;;;;;3.81;37.58;102064.72;4992416;28;20186;-43
2022/03/12 07:53:15;;;;;;;8.27;6.28;;;;;;;3.80;36.86;102073.53;4991470;28;20208;-44
2022/03/12 07:55:41;;;;;;;12.93;6.35;;;;;;;3.54;37.67;102090.03;4992449;28;20168;-45
2022/03/12 07:58:06;;;;;;;8.15;6.00;;;;;;;3.50;37.19;102082.97;4990878;28;20190;-44
2022/03/12 08:00:33;;;;;;;11.05;6.63;;;;;;;3.55;37.55;102068.00;4992099;28;20177;-44
2022/03/12 08:02:59;;;;;;;9.60;5.82;;;;;;;3.73;37.06;102077.88;4991676;28;20213;-43
2022/03/12 08:05:25;;;;;;;11.43;6.45;;;;;;;3.58;36.88;102083.91;4991903;28;20178;-43
2022/03/12 08:07:54;;;;;;;7.95;5.90;;;;;;;4.03;36.79;102079.06;4991978;28;20239;-42
2022/03/12 08:10:21;;;;;;;12.95;6.57;;;;;;;4.08;36.76;102087.94;4992000;28;20189;-41
2022/03/12 08:12:48;;;;;;;10.73;6.50;;;;;;;4.11;36.59;102088.88;5008116;28;20255;-43
2022/03/12 08:15:15;;;;;;;8.23;6.20;;;;;;;4.17;36.54;102077.41;5010053;28;20251;-42
2022/03/12 08:17:43;;;;;;;8.73;5.97;;;;;;;4.14;36.39;102090.66;5015776;28;20172;-44
2022/03/12 08:20:09;;;;;;;9.77;5.75;;;;;;;4.12;36.53;102082.66;5011303;28;20184;-44
2022/03/12 08:22:41;;;;;;;13.73;6.07;;;;;;;4.18;36.54;102084.50;5009235;28;20208;-42
2022/03/12 08:25:09;;;;;;;11.48;5.75;;;;;;;4.35;36.12;102087.25;5011662;28;20220;-42
2022/03/12 08:27:37;;;;;;;8.00;5.65;;;;;;;4.44;35.98;102087.34;5011342;28;20173;-42
2022/03/12 08:30:07;;;;;;;9.38;6.18;;;;;;;4.92;35.65;102069.97;5011109;28;20189;-42
2022/03/12 08:32:35;;;;;;;11.55;5.97;;;;;;;4.61;35.67;102083.91;5009782;28;20192;-41
2022/03/12 08:35:01;;;;;;;8.43;6.20;;;;;;;4.74;35.24;102083.13;5010655;28;20208;-43
2022/03/12 08:37:26;;;;;;;8.65;5.40;;;;;;;4.78;35.29;102071.63;5007922;28;20176;-42
2022/03/12 08:39:52;;;;;;;9.77;6.03;;;;;;;4.92;35.44;102074.38;5010883;28;20167;-45
2022/03/12 08:42:17;;;;;;;7.85;6.05;;;;;;;4.65;34.73;102075.97;5025531;28;20217;-42
2022/03/12 08:44:43;;;;;;;11.18;6.60;;;;;;;4.70;34.43;102078.66;5010153;28;20223;-43
2022/03/12 08:47:09;;;;;;;8.05;5.93;;;;;;;5.15;34.17;102079.78;5010653;28;20173;-42
2022/03/12 08:49:35;;;;;;;8.75;6.32;;;;;;;5.76;34.33;102072.00;5011069;28;20613;-43
2022/03/12 08:52:02;;;;;;;9.77;6.45;;;;;;;5.70;33.76;102082.63;5010894;28;20169;-42
2022/03/12 08:54:28;;;;;;;8.73;5.45;;;;;;;5.16;33.44;102082.47;5010213;28;20555;-45
2022/03/12 08:56:54;;;;;;;9.27;5.93;;;;;;;5.56;33.43;102081.72;5010903;28;20192;-43
2022/03/12 08:59:19;;;;;;;7.07;5.70;;;;;;;5.91;33.57;102075.56;5010893;28;20519;-45
2022/03/12 09:01:46;;;;;;;9.15;5.75;;;;;;;5.47;33.50;102079.03;5010560;28;20538;-44
2022/03/12 09:04:12;;;;;;;9.80;6.28;;;;;;;5.50;33.41;102079.91;5010351;28;20648;-43
2022/03/12 09:06:38;;;;;;;8.85;6.10;;;;;;;6.18;33.62;102078.25;5009408;28;20534;-43
2022/03/12 09:09:04;;;;;;;9.48;6.22;;;;;;;6.03;32.94;102083.59;5010689;28;20176;-44
2022/03/12 09:11:30;;;;;;;11.05;6.40;;;;;;;5.74;33.09;102070.22;5009092;28;20542;-46
2022/03/12 09:13:55;;;;;;;8.73;5.50;;;;;;;6.13;33.36;102053.44;5010284;28;20203;-42
2022/03/12 09:16:22;;;;;;;9.05;6.20;;;;;;;6.25;32.75;102049.00;5010218;28;20173;-45
2022/03/12 09:18:48;;;;;;;10.75;6.60;;;;;;;6.30;32.81;102071.19;5010566;28;20238;-45
2022/03/12 09:21:14;;;;;;;9.90;5.85;;;;;;;5.99;32.81;102065.84;5010725;28;20172;-45
2022/03/12 09:23:40;;;;;;;9.63;5.70;;;;;;;6.38;32.61;102066.72;5009508;28;20292;-44
2022/03/12 09:26:06;;;;;;;8.65;5.95;;;;;;;6.57;32.98;102054.28;5008993;28;20699;-46
2022/03/12 09:28:32;;;;;;;8.57;5.88;;;;;;;6.36;32.88;102047.19;5010134;28;20256;-43
2022/03/12 09:30:58;;;;;;;11.95;6.07;;;;;;;6.53;32.42;102052.50;5009896;28;20195;-44
2022/03/12 09:33:24;;;;;;;16.17;6.32;;;;;;;6.22;32.55;102057.88;5009792;28;20192;-44
2022/03/12 09:35:50;;;;;;;7.90;6.03;;;;;;;6.12;32.82;102061.41;5009862;28;20176;-44
2022/03/12 09:38:16;;;;;;;7.55;5.72;;;;;;;6.59;32.57;102066.69;5009823;28;20247;-45
2022/03/12 09:40:43;;;;;;;9.25;6.38;;;;;;;7.01;32.40;102071.91;5009571;28;20687;-44
2022/03/12 09:43:10;;;;;;;11.18;6.30;;;;;;;7.06;32.76;102075.44;5009471;28;20208;-45
2022/03/12 09:45:35;;;;;;;6.90;5.55;;;;;;;6.61;31.73;102072.03;5024932;28;20188;-44
2022/03/12 09:48:01;;;;;;;7.72;5.65;;;;;;;7.10;31.90;102071.00;5009944;28;20169;-44
2022/03/12 09:50:26;;;;;;;9.55;5.88;;;;;;;7.37;31.45;102078.88;5008921;28;20177;-47
2022/03/12 09:52:53;;;;;;;8.73;6.15;;;;;;;7.05;31.48;102071.00;5014286;28;20204;-45
2022/03/12 09:55:19;;;;;;;7.55;6.03;;;;;;;6.99;32.12;102071.03;5004723;28;20325;-44
2022/03/12 09:57:48;;;;;;;10.45;6.00;;;;;;;6.73;31.62;102065.78;5007215;28;20176;-46
2022/03/12 10:00:15;;;;;;;8.90;6.03;;;;;;;6.82;31.28;102068.41;5009777;28;20219;-45
2022/03/12 10:02:41;;;;;;;8.70;5.82;;;;;;;6.89;31.90;102064.88;5008880;28;20200;-45
2022/03/12 10:05:10;;;;;;;7.75;5.95;;;;;;;6.70;31.46;102065.78;4992218;28;20201;-44
2022/03/12 10:07:36;;;;;;;10.05;5.97;;;;;;;7.31;31.59;102054.03;4989886;28;20173;-44
2022/03/12 10:10:02;;;;;;;9.63;5.93;;;;;;;7.38;31.24;102055.78;4989868;28;20182;-46
2022/03/12 10:12:28;;;;;;;9.13;6.22;;;;;;;7.37;31.26;102051.34;4989719;28;20542;-45
2022/03/12 10:14:53;;;;;;;11.13;5.70;;;;;;;7.73;32.25;102052.88;4988633;28;20232;-43
2022/03/12 10:17:18;;;;;;;9.50;5.97;;;;;;;7.62;32.16;102062.75;4989777;28;20190;-45
2022/03/12 10:19:45;;;;;;;8.20;5.85;;;;;;;7.51;31.89;102049.47;4989863;28;20260;-44
2022/03/12 10:22:11;;;;;;;13.02;6.18;;;;;;;7.31;31.59;102044.25;4911317;28;20601;-44
2022/03/12 10:24:36;;;;;;;7.85;5.65;;;;;;;7.19;31.85;102046.97;4846038;28;20316;-45
2022/03/12 10:27:03;;;;;;;6.90;6.20;;;;;;;7.42;31.47;102050.41;4989681;28;20169;-45
2022/03/12 10:29:28;;;;;;;16.98;6.15;;;;;;;7.44;31.93;102045.06;4989685;28;20165;-46
2022/03/12 10:31:55;;;;;;;8.90;6.05;;;;;;;7.51;32.06;102033.47;4989701;28;20635;-45
2022/03/12 10:34:22;;;;;;;12.25;6.20;;;;;;;7.51;32.06;102036.13;5003966;28;20204;-47
2022/03/12 10:36:49;;;;;;;9.93;6.18;;;;;;;7.69;31.80;102029.78;4989827;28;20609;-46
2022/03/12 10:39:16;;;;;;;10.32;5.97;;;;;;;7.70;31.25;102033.38;4991004;28;20172;-43
2022/03/12 10:41:41;;;;;;;14.07;9.68;;;;;;;7.54;31.55;102030.81;4993356;28;20264;-45
2022/03/12 10:44:07;;;;;;;8.43;5.80;;;;;;;7.45;31.46;102024.63;4993297;28;20308;-46
2022/03/12 10:46:35;;;;;;;7.45;5.65;;;;;;;7.46;31.51;102034.41;4992886;28;20477;-47
2022/03/12 10:49:04;;;;;;;7.75;6.15;;;;;;;7.76;31.97;102038.63;4993426;28;20173;-43
2022/03/12 10:51:32;;;;;;;9.55;6.55;;;;;;;7.94;31.67;102021.63;5008078;28;20177;-45
2022/03/12 10:54:04;;;;;;;9.75;6.25;;;;;;;7.70;31.54;102026.25;4992981;28;20606;-44
2022/03/12 10:56:46;;;;;;;8.35;5.90;;;;;;;7.92;31.07;102029.63;4993162;28;20205;-44
2022/03/12 10:59:20;;;;;;;7.50;5.90;;;;;;;8.08;31.15;102033.06;4993351;28;20192;-46
2022/03/12 11:01:51;;;;;;;8.50;5.72;;;;;;;8.15;30.94;102032.09;4993133;28;20195;-45
2022/03/12 11:04:22;;;;;;;7.28;5.85;;;;;;;8.02;30.56;102038.44;4992646;28;20248;-46
2022/03/12 11:06:50;;;;;;;10.95;5.82;;;;;;;7.89;30.58;102040.31;4993036;28;20165;-47
2022/03/12 11:09:18;;;;;;;7.65;5.82;;;;;;;8.06;31.06;102018.81;4992933;28;20201;-46
2022/03/12 11:11:45;;;;;;;9.63;5.82;;;;;;;7.97;30.80;102025.13;4992778;28;20170;-45
2022/03/12 11:14:20;;;;;;;7.88;5.70;;;;;;;8.01;30.68;102026.88;4992467;28;20197;-45
2022/03/12 11:16:52;;;;;;;7.15;5.65;;;;;;;7.84;30.94;102026.13;4993467;28;20279;-47
2022/03/12 11:19:37;;;;;;;7.03;5.50;;;;;;;8.08;30.65;102003.69;4993094;28;20318;-45
2022/03/12 11:22:09;;;;;;;9.05;6.57;;;;;;;8.25;30.75;102012.44;4992510;28;20161;-44
2022/03/12 11:24:52;;;;;;;8.70;6.45;;;;;;;8.39;30.85;102008.72;4992360;28;20313;-44
2022/03/12 11:27:30;;;;;;;7.78;5.78;;;;;;;8.41;30.89;102018.53;5007503;28;20213;-45
2022/03/12 11:29:58;;;;;;;6.95;6.00;;;;;;;8.38;30.28;102015.88;4992691;28;20177;-45
2022/03/12 11:32:23;;;;;;;11.57;5.80;;;;;;;8.25;30.45;102011.56;4992085;28;20208;-44